Ary, Kentucky
Current Conditions -  °F | °C
As of 8:53 PM on Thursday 18 Dec 2014 (Local Time) from KJKL Reporting Station
Overcast Overcast  
Wind Chill: 32°   Ceiling: 6500
Heat Index: 32°   Visibility: 10mi
Dew Point: 24°   Wind: 3mph
Humidity: 73%   Direction: NA
Pressure: 30.18"   Gusts: NA
Location:  37.37°N, 83.15°W
Report Text: KJKL 190153Z AUTO VRB03KT 10SM OVC065 00/M04 A3018 RMK AO2 SLP230 T00001044
Loading
Personal Weather Stations






























Interactive Weather Map New forecast layout! Learn more

10-Day Weather Forecast

Advertisements
Track Severe Weather on mobile